Time;durP1;ratioP1;P1;durP2;ratioP2;P2;SDS_P1;SDS_P2;PMS_P1;PMS_P2;Temp;Humidity;BMP_temperature;BMP_pressure;BME280_temperature;BME280_humidity;BME280_pressure;Samples;Min_cycle;Max_cycle;Signal;HPM_P1;HPM_P2
2024/01/19 00:01:10;;;;;;;2.33;1.55;;;;;;;-1.04;100.00;101094.22;5020530;28;20026;-71
2024/01/19 00:03:57;;;;;;;2.10;0.90;;;;;;;-1.01;100.00;101091.66;5018191;28;20542;-71
2024/01/19 00:06:42;;;;;;;3.58;0.85;;;;;;;-1.01;100.00;101096.84;5020022;28;20037;-70
2024/01/19 00:09:28;;;;;;;1.85;0.88;;;;;;;-1.00;100.00;101101.19;5020100;28;23336;-71
2024/01/19 00:12:14;;;;;;;2.85;1.00;;;;;;;-1.00;100.00;101116.78;5020973;28;20083;-70
2024/01/19 00:15:00;;;;;;;2.08;1.02;;;;;;;-1.00;100.00;101126.28;5022324;28;20049;-71
2024/01/19 00:17:45;;;;;;;4.57;0.93;;;;;;;-1.00;100.00;101139.28;5027004;28;20053;-71
2024/01/19 00:20:31;;;;;;;2.58;0.90;;;;;;;-0.99;100.00;101144.50;5022976;28;20042;-71
2024/01/19 00:23:17;;;;;;;1.85;0.60;;;;;;;-0.96;100.00;101139.31;5019129;28;20148;-71
2024/01/19 00:26:02;;;;;;;2.60;0.75;;;;;;;-0.89;100.00;101147.16;5008021;28;20078;-71
2024/01/19 00:28:48;;;;;;;2.88;1.00;;;;;;;-0.84;100.00;101140.28;5019766;28;20555;-71
2024/01/19 00:31:35;;;;;;;2.70;0.90;;;;;;;-0.79;100.00;101135.09;5019034;28;20033;-70
2024/01/19 00:34:20;;;;;;;3.67;1.00;;;;;;;-0.75;100.00;101134.25;5018587;28;20116;-71
2024/01/19 00:37:07;;;;;;;2.22;1.30;;;;;;;-0.75;100.00;101126.47;5020521;28;20053;-71
2024/01/19 00:39:52;;;;;;;1.25;0.73;;;;;;;-0.75;100.00;101124.75;5018346;28;20107;-70
2024/01/19 00:42:42;;;;;;;2.75;0.90;;;;;;;-0.73;100.00;101129.94;5017370;28;20041;-70
2024/01/19 00:45:28;;;;;;;2.47;1.00;;;;;;;-0.77;100.00;101126.44;5018192;28;20017;-70
2024/01/19 00:48:13;;;;;;;4.10;0.90;;;;;;;-0.81;100.00;101124.72;5017252;28;20037;-70
2024/01/19 00:50:59;;;;;;;2.70;0.90;;;;;;;-0.87;100.00;101120.31;5017594;28;20029;-70
2024/01/19 00:53:45;;;;;;;6.63;0.95;;;;;;;-0.92;100.00;101119.44;5017596;28;20041;-71
2024/01/19 00:56:30;;;;;;;1.80;0.80;;;;;;;-0.96;100.00;101134.13;5020116;28;20049;-70
2024/01/19 00:59:16;;;;;;;6.65;0.88;;;;;;;-1.00;100.00;101140.16;5018740;28;20061;-70
2024/01/19 01:02:02;;;;;;;2.28;0.90;;;;;;;-1.06;100.00;101137.53;5019228;28;20120;-70
2024/01/19 01:04:48;;;;;;;4.43;0.80;;;;;;;-1.14;100.00;101144.41;5017914;28;20037;-70
2024/01/19 01:07:33;;;;;;;1.92;0.85;;;;;;;-1.23;100.00;101140.88;5018645;28;20061;-71
2024/01/19 01:10:19;;;;;;;1.05;0.63;;;;;;;-1.28;100.00;101139.97;5018609;28;20029;-70
2024/01/19 01:13:05;;;;;;;5.55;0.95;;;;;;;-1.28;100.00;101137.34;5018453;28;20498;-71
2024/01/19 01:15:50;;;;;;;4.25;1.00;;;;;;;-1.22;100.00;101131.34;5016817;28;20623;-70
2024/01/19 01:18:36;;;;;;;0.80;0.80;;;;;;;-1.21;100.00;101130.47;5018475;28;20661;-70
2024/01/19 01:21:22;;;;;;;2.45;0.85;;;;;;;-1.19;100.00;101127.91;5018041;28;20500;-70
2024/01/19 01:24:07;;;;;;;4.30;0.80;;;;;;;-1.20;100.00;101133.94;5017851;28;20037;-71
2024/01/19 01:26:53;;;;;;;3.65;0.70;;;;;;;-1.20;100.00;101128.75;5017389;28;20080;-71
2024/01/19 01:29:39;;;;;;;1.55;0.80;;;;;;;-1.25;100.00;101132.19;5017236;28;20045;-70
2024/01/19 01:32:25;;;;;;;2.00;0.80;;;;;;;-1.28;100.00;101137.34;5019707;28;20045;-69
2024/01/19 01:35:10;;;;;;;1.50;0.80;;;;;;;-1.31;100.00;101137.31;5019472;28;20041;-71
2024/01/19 01:37:56;;;;;;;1.50;0.70;;;;;;;-1.36;100.00;101141.63;5018504;28;20041;-71
2024/01/19 01:40:42;;;;;;;5.97;0.95;;;;;;;-1.38;100.00;101144.19;5017560;28;20048;-71
2024/01/19 01:43:28;;;;;;;0.80;0.80;;;;;;;-1.36;100.00;101157.22;5017223;28;20037;-71
2024/01/19 01:46:13;;;;;;;1.88;0.60;;;;;;;-1.39;100.00;101165.84;5016706;28;20140;-70
2024/01/19 01:48:59;;;;;;;1.17;0.90;;;;;;;-1.39;100.00;101167.56;5018800;28;20029;-71
2024/01/19 01:51:45;;;;;;;1.63;0.80;;;;;;;-1.33;100.00;101174.53;5030473;28;20029;-72
2024/01/19 01:54:31;;;;;;;2.22;0.95;;;;;;;-1.28;100.00;101175.44;5015070;28;20041;-71
2024/01/19 01:57:20;;;;;;;1.25;0.85;;;;;;;-1.27;100.00;101180.66;5016218;28;20037;-71
2024/01/19 02:00:08;;;;;;;1.05;0.70;;;;;;;-1.26;100.00;101184.13;5001117;28;20029;-71
2024/01/19 02:02:53;;;;;;;5.18;0.90;;;;;;;-1.26;100.00;101187.59;5014955;28;20025;-72
2024/01/19 02:05:39;;;;;;;4.05;1.05;;;;;;;-1.25;100.00;101194.53;5029238;28;20099;-71
2024/01/19 02:08:25;;;;;;;2.53;1.00;;;;;;;-1.19;100.00;101190.25;5015908;28;20463;-71
2024/01/19 02:11:11;;;;;;;3.80;0.90;;;;;;;-1.14;100.00;101188.59;5017194;28;20042;-72
2024/01/19 02:13:56;;;;;;;3.67;0.73;;;;;;;-1.07;100.00;101192.09;5016118;28;20048;-72
2024/01/19 02:16:42;;;;;;;1.45;0.70;;;;;;;-1.05;100.00;101209.44;5016780;28;20033;-71
2024/01/19 02:19:28;;;;;;;3.28;0.80;;;;;;;-1.00;100.00;101222.47;5019377;28;20041;-71
2024/01/19 02:22:14;;;;;;;2.17;0.85;;;;;;;-0.97;100.00;101214.72;5022736;28;20041;-72
2024/01/19 02:25:00;;;;;;;2.20;0.77;;;;;;;-0.92;100.00;101196.53;5019709;28;20090;-70
2024/01/19 02:27:46;;;;;;;1.70;1.02;;;;;;;-0.90;100.00;101205.22;5017696;28;20080;-72
2024/01/19 02:30:32;;;;;;;1.48;0.93;;;;;;;-0.91;100.00;101212.16;5016792;28;20045;-72
2024/01/19 02:33:18;;;;;;;2.33;0.70;;;;;;;-0.94;100.00;101200.88;5012443;28;20073;-72
2024/01/19 02:36:04;;;;;;;4.93;0.98;;;;;;;-0.96;100.00;101196.50;5018889;28;20052;-72
2024/01/19 02:38:49;;;;;;;3.63;1.00;;;;;;;-0.98;100.00;101206.03;5016770;28;20041;-72
2024/01/19 02:41:35;;;;;;;1.80;1.40;;;;;;;-0.98;100.00;101219.03;5013230;28;20175;-72
2024/01/19 02:44:21;;;;;;;1.13;0.80;;;;;;;-0.98;100.00;101229.44;5002447;28;20037;-72
2024/01/19 02:47:06;;;;;;;3.00;0.77;;;;;;;-0.91;100.00;101237.28;5020009;28;20045;-71
2024/01/19 02:49:53;;;;;;;5.55;0.82;;;;;;;-0.81;100.00;101259.91;5018555;28;20045;-72
2024/01/19 02:52:38;;;;;;;2.20;1.00;;;;;;;-0.73;100.00;101275.56;5018573;28;20049;-72
2024/01/19 02:55:24;;;;;;;3.90;1.05;;;;;;;-0.67;100.00;101265.22;5016555;28;20042;-72
2024/01/19 02:58:10;;;;;;;5.20;0.90;;;;;;;-0.66;100.00;101255.69;5017701;28;20069;-71
2024/01/19 03:00:55;;;;;;;0.85;0.77;;;;;;;-0.69;100.00;101254.78;5016777;28;20672;-72
2024/01/19 03:03:41;;;;;;;3.03;0.90;;;;;;;-0.69;100.00;101252.19;5019450;28;20038;-72
2024/01/19 03:06:27;;;;;;;0.88;0.80;;;;;;;-0.70;100.00;101249.59;5022711;28;20073;-72
2024/01/19 03:09:12;;;;;;;7.28;0.90;;;;;;;-0.73;100.00;101258.25;5019520;28;20088;-72
2024/01/19 03:11:58;;;;;;;2.03;0.77;;;;;;;-0.76;100.00;101263.41;5017153;28;20099;-72
2024/01/19 03:14:44;;;;;;;3.03;0.82;;;;;;;-0.80;100.00;101264.25;5011307;28;20037;-72
2024/01/19 03:17:30;;;;;;;3.85;1.27;;;;;;;-0.84;100.00;101272.88;5019284;28;20037;-72
2024/01/19 03:20:15;;;;;;;1.48;0.93;;;;;;;-0.91;100.00;101265.88;5013776;28;20069;-72
2024/01/19 03:23:01;;;;;;;2.92;0.80;;;;;;;-0.98;100.00;101276.22;5017927;28;20049;-72
2024/01/19 03:25:47;;;;;;;0.75;0.68;;;;;;;-1.04;100.00;101276.16;5016933;28;20061;-72
2024/01/19 03:28:35;;;;;;;2.75;1.38;;;;;;;-1.10;100.00;101270.91;5017450;28;20640;-72
2024/01/19 03:31:21;;;;;;;1.38;0.82;;;;;;;-1.16;100.00;101276.03;5014657;28;20954;-72
2024/01/19 03:34:07;;;;;;;4.15;1.05;;;;;;;-1.23;100.00;101276.00;5015899;28;20969;-72
2024/01/19 03:36:52;;;;;;;3.75;0.93;;;;;;;-1.28;100.00;101282.88;5016551;28;20424;-71
2024/01/19 03:39:38;;;;;;;1.40;0.80;;;;;;;-1.33;100.00;101288.84;5017527;28;20103;-71
2024/01/19 03:42:26;;;;;;;3.35;1.05;;;;;;;-1.36;100.00;101307.91;5015984;28;20550;-71
2024/01/19 03:45:12;;;;;;;2.70;0.98;;;;;;;-1.38;100.00;101309.59;5016169;28;20041;-72
2024/01/19 03:47:57;;;;;;;4.22;1.27;;;;;;;-1.40;100.00;101309.59;5015749;28;20091;-71
2024/01/19 03:50:43;;;;;;;5.90;1.00;;;;;;;-1.38;100.00;101318.25;5018267;28;20045;-72
2024/01/19 03:53:29;;;;;;;6.05;1.00;;;;;;;-1.34;100.00;101324.38;5011107;28;20034;-71
2024/01/19 03:56:14;;;;;;;2.33;0.90;;;;;;;-1.31;100.00;101326.97;5024933;28;20049;-71
2024/01/19 03:59:00;;;;;;;1.67;0.90;;;;;;;-1.28;100.00;101334.84;5022145;28;21991;-71
2024/01/19 04:01:46;;;;;;;3.78;0.85;;;;;;;-1.23;100.00;101335.75;5019911;28;20068;-72
2024/01/19 04:04:32;;;;;;;6.25;1.10;;;;;;;-1.16;100.00;101330.59;5018203;28;20052;-71
2024/01/19 04:07:18;;;;;;;2.55;0.93;;;;;;;-1.12;100.00;101333.28;5018895;28;20128;-72
2024/01/19 04:10:04;;;;;;;2.47;0.70;;;;;;;-1.10;100.00;101318.56;5019995;28;20045;-72
2024/01/19 04:12:51;;;;;;;3.53;1.13;;;;;;;-1.08;100.00;101331.59;5019344;28;20566;-72
2024/01/19 04:15:37;;;;;;;2.38;1.00;;;;;;;-1.07;100.00;101333.31;5019058;28;20496;-72
2024/01/19 04:18:23;;;;;;;4.65;1.10;;;;;;;-1.08;100.00;101339.38;5020472;28;20415;-72
2024/01/19 04:21:08;;;;;;;3.30;1.00;;;;;;;-1.14;100.00;101340.16;5018922;28;20140;-72
2024/01/19 04:23:54;;;;;;;7.25;1.50;;;;;;;-1.17;100.00;101352.25;5018743;28;21873;-71
2024/01/19 04:26:40;;;;;;;5.60;1.20;;;;;;;-1.21;100.00;101345.28;5019378;28;20064;-72
2024/01/19 04:29:26;;;;;;;3.28;1.20;;;;;;;-1.28;100.00;101350.41;5015690;28;20045;-71
2024/01/19 04:32:11;;;;;;;6.78;0.98;;;;;;;-1.33;100.00;101349.47;5016247;28;20103;-71
2024/01/19 04:34:57;;;;;;;9.50;1.20;;;;;;;-1.34;100.00;101352.06;5017133;28;20160;-71
2024/01/19 04:37:43;;;;;;;4.80;1.20;;;;;;;-1.35;100.00;101347.72;5018664;28;20033;-71
2024/01/19 04:40:28;;;;;;;8.20;1.15;;;;;;;-1.40;100.00;101361.53;5018304;28;20057;-71
2024/01/19 04:43:14;;;;;;;2.05;0.82;;;;;;;-1.41;100.00;101364.13;5019995;28;20491;-72
2024/01/19 04:46:00;;;;;;;2.33;0.95;;;;;;;-1.45;100.00;101372.72;5020475;28;20033;-72
2024/01/19 04:48:46;;;;;;;3.40;0.90;;;;;;;-1.49;100.00;101370.94;5023274;28;20508;-72
2024/01/19 04:51:31;;;;;;;6.72;1.25;;;;;;;-1.53;100.00;101370.03;5020872;28;20036;-72
2024/01/19 04:54:17;;;;;;;2.53;1.10;;;;;;;-1.58;100.00;101372.53;5019487;28;20037;-72
2024/01/19 04:57:03;;;;;;;5.25;1.23;;;;;;;-1.61;100.00;101376.81;5016648;28;20057;-72
2024/01/19 04:59:49;;;;;;;6.13;1.23;;;;;;;-1.68;100.00;101375.88;5018298;28;20071;-72
2024/01/19 05:02:34;;;;;;;4.05;0.82;;;;;;;-1.71;100.00;101386.22;5016689;28;20139;-72
2024/01/19 05:05:20;;;;;;;2.13;0.80;;;;;;;-1.73;100.00;101380.13;5017642;28;20030;-72
2024/01/19 05:08:06;;;;;;;4.25;0.77;;;;;;;-1.75;100.00;101385.28;5001910;28;20089;-72
2024/01/19 05:10:52;;;;;;;4.93;1.30;;;;;;;-1.76;100.00;101398.28;5018766;28;20042;-72
2024/01/19 05:13:37;;;;;;;2.72;1.00;;;;;;;-1.77;100.00;101394.78;5020498;28;20045;-72
2024/01/19 05:16:23;;;;;;;2.72;1.00;;;;;;;-1.83;100.00;101398.19;5019247;28;20041;-72
2024/01/19 05:19:09;;;;;;;4.80;1.00;;;;;;;-1.89;100.00;101402.38;5018088;28;20048;-72
2024/01/19 05:21:54;;;;;;;2.95;0.90;;;;;;;-1.96;100.00;101406.63;5018031;28;20061;-72
2024/01/19 05:24:41;;;;;;;4.93;1.02;;;;;;;-2.02;100.00;101414.31;5017214;28;20045;-72
2024/01/19 05:27:26;;;;;;;3.03;0.93;;;;;;;-2.07;100.00;101422.88;5017647;28;20504;-72
2024/01/19 05:30:13;;;;;;;2.42;0.80;;;;;;;-2.10;100.00;101428.03;5015408;28;22079;-72
2024/01/19 05:32:59;;;;;;;2.58;1.08;;;;;;;-2.12;100.00;101432.31;5015374;28;20120;-72
2024/01/19 05:35:45;;;;;;;6.22;1.15;;;;;;;-2.14;100.00;101435.75;5017605;28;20045;-72
2024/01/19 05:38:30;;;;;;;3.15;0.98;;;;;;;-2.17;100.00;101428.78;5016065;28;20034;-72
2024/01/19 05:41:20;;;;;;;4.70;1.00;;;;;;;-2.16;100.00;101434.84;5004065;28;20044;-72
2024/01/19 05:44:05;;;;;;;1.23;0.85;;;;;;;-2.15;100.00;101432.28;5019779;28;20108;-72
2024/01/19 05:46:51;;;;;;;3.30;1.05;;;;;;;-2.16;100.00;101434.84;5016564;28;20055;-72
2024/01/19 05:49:37;;;;;;;5.60;1.10;;;;;;;-2.16;100.00;101440.91;5003442;28;20103;-72
2024/01/19 05:52:23;;;;;;;4.80;1.17;;;;;;;-2.14;100.00;101444.41;5017080;28;20064;-73
2024/01/19 05:55:09;;;;;;;4.22;0.90;;;;;;;-2.13;100.00;101440.94;5003064;28;20099;-73
2024/01/19 05:57:54;;;;;;;5.70;1.23;;;;;;;-2.09;100.00;101453.16;5015811;28;20033;-73
2024/01/19 06:00:40;;;;;;;5.20;1.08;;;;;;;-2.04;100.00;101450.63;5017760;28;20130;-73
2024/01/19 06:03:26;;;;;;;3.03;0.85;;;;;;;-1.98;100.00;101449.84;5015007;28;22051;-73
2024/01/19 06:06:11;;;;;;;2.80;1.05;;;;;;;-1.95;100.00;101453.34;5017665;28;20033;-73
2024/01/19 06:08:57;;;;;;;5.90;1.00;;;;;;;-1.92;100.00;101462.91;5016148;28;20044;-72
2024/01/19 06:11:43;;;;;;;5.53;1.20;;;;;;;-1.88;100.00;101466.44;5004030;28;20067;-72
2024/01/19 06:14:29;;;;;;;4.93;0.93;;;;;;;-1.86;100.00;101478.59;5017196;28;20042;-73
2024/01/19 06:17:15;;;;;;;3.88;0.90;;;;;;;-1.81;100.00;101504.63;5017348;28;20037;-73
2024/01/19 06:20:01;;;;;;;6.43;1.30;;;;;;;-1.78;100.00;101502.94;5017883;28;20048;-73
2024/01/19 06:22:46;;;;;;;6.65;1.15;;;;;;;-1.76;100.00;101505.59;5005349;28;20139;-73
2024/01/19 06:25:32;;;;;;;6.15;1.35;;;;;;;-1.78;100.00;101502.94;5018234;28;20034;-72
2024/01/19 06:28:18;;;;;;;2.55;1.45;;;;;;;-1.81;100.00;101508.09;5007921;28;20563;-73
2024/01/19 06:31:05;;;;;;;5.13;1.40;;;;;;;-1.82;100.00;101516.75;4986489;28;20060;-73
2024/01/19 06:33:50;;;;;;;6.53;1.42;;;;;;;-1.85;100.00;101521.03;4986200;28;20072;-74
2024/01/19 06:36:36;;;;;;;3.72;1.05;;;;;;;-1.87;100.00;101526.19;5005071;28;20034;-73
2024/01/19 06:39:23;;;;;;;2.78;1.20;;;;;;;-1.88;100.00;101540.00;4991164;28;20175;-72
2024/01/19 06:42:09;;;;;;;9.05;1.83;;;;;;;-1.89;100.00;101527.00;5007162;28;20034;-73
2024/01/19 06:44:54;;;;;;;3.97;1.05;;;;;;;-1.91;100.00;101535.63;5004845;28;21388;-72
2024/01/19 06:47:40;;;;;;;6.95;1.40;;;;;;;-1.93;100.00;101537.34;5006190;28;20138;-72
2024/01/19 06:50:26;;;;;;;4.95;1.45;;;;;;;-1.94;100.00;101542.50;5000835;28;20034;-72
2024/01/19 06:53:12;;;;;;;4.53;0.93;;;;;;;-1.95;100.00;101543.34;5001487;28;20405;-73
2024/01/19 06:55:58;;;;;;;5.13;1.45;;;;;;;-1.97;100.00;101545.06;4986863;28;20567;-73
2024/01/19 06:58:43;;;;;;;4.07;1.27;;;;;;;-1.98;100.00;101551.06;5000956;28;20129;-73
2024/01/19 07:01:29;;;;;;;1.83;1.40;;;;;;;-2.00;100.00;101552.75;4987245;28;20041;-72
2024/01/19 07:04:15;;;;;;;6.35;1.48;;;;;;;-2.02;100.00;101563.13;4998192;28;20045;-71
2024/01/19 07:07:01;;;;;;;4.53;1.48;;;;;;;-1.99;100.00;101570.09;5004608;28;20041;-73
2024/01/19 07:09:46;;;;;;;5.30;1.05;;;;;;;-1.97;100.00;101576.19;5002582;28;20066;-73
2024/01/19 07:12:33;;;;;;;3.42;1.10;;;;;;;-1.95;100.00;101577.09;5001383;28;20060;-73
2024/01/19 07:15:19;;;;;;;3.85;1.00;;;;;;;-1.94;100.00;101584.91;5001879;28;20462;-71
2024/01/19 07:18:05;;;;;;;3.33;1.00;;;;;;;-1.93;100.00;101578.88;4986994;28;20057;-71
2024/01/19 07:20:51;;;;;;;3.00;1.15;;;;;;;-1.91;100.00;101590.16;4978641;28;20132;-70
2024/01/19 07:23:37;;;;;;;8.20;1.55;;;;;;;-1.88;100.00;101593.63;4984863;28;20091;-73
2024/01/19 07:26:23;;;;;;;3.22;1.30;;;;;;;-1.87;100.00;101598.88;4999398;28;20069;-73
2024/01/19 07:29:09;;;;;;;5.20;1.20;;;;;;;-1.87;100.00;101596.28;4989044;28;20046;-72
2024/01/19 07:31:55;;;;;;;4.47;1.20;;;;;;;-1.85;100.00;101596.31;4975037;28;20041;-73
2024/01/19 07:34:41;;;;;;;8.00;1.20;;;;;;;-1.83;100.00;101598.09;4973344;28;20037;-72
2024/01/19 07:37:26;;;;;;;4.13;1.15;;;;;;;-1.78;100.00;101605.94;4984863;28;20056;-73
2024/01/19 07:40:12;;;;;;;4.40;1.60;;;;;;;-1.74;100.00;101593.91;4990239;28;20034;-73
2024/01/19 07:42:58;;;;;;;7.15;1.17;;;;;;;-1.69;100.00;101595.72;4990772;28;20041;-73
2024/01/19 07:45:43;;;;;;;4.20;1.20;;;;;;;-1.66;100.00;101602.69;4989857;28;20117;-73
2024/01/19 07:48:29;;;;;;;5.63;1.77;;;;;;;-1.65;100.00;101609.63;4973877;28;20034;-72
2024/01/19 07:51:15;;;;;;;3.00;1.30;;;;;;;-1.64;100.00;101612.25;4975712;28;20912;-73
2024/01/19 07:54:01;;;;;;;3.83;1.23;;;;;;;-1.65;100.00;101609.63;4991652;28;20489;-73
2024/01/19 07:56:46;;;;;;;6.38;1.50;;;;;;;-1.68;100.00;101605.25;4965040;28;20100;-72
2024/01/19 07:59:32;;;;;;;5.32;2.17;;;;;;;-1.69;100.00;101613.03;4991355;28;20073;-71
2024/01/19 08:02:18;;;;;;;5.15;1.80;;;;;;;-1.70;100.00;101612.16;4988893;28;20469;-71
2024/01/19 08:05:04;;;;;;;6.15;1.10;;;;;;;-1.69;100.00;101619.09;4990534;28;20400;-72
2024/01/19 08:07:50;;;;;;;5.53;1.45;;;;;;;-1.69;100.00;101618.22;4994901;28;21117;-72
2024/01/19 08:10:36;;;;;;;6.45;1.25;;;;;;;-1.72;100.00;101619.03;4977385;28;20057;-72
2024/01/19 08:13:22;;;;;;;6.57;1.30;;;;;;;-1.71;100.00;101620.78;4980972;28;20576;-72
2024/01/19 08:16:08;;;;;;;7.90;1.38;;;;;;;-1.69;100.00;101621.69;4999248;28;20041;-72
2024/01/19 08:18:56;;;;;;;6.55;1.40;;;;;;;-1.68;100.00;101625.16;4992357;28;20066;-73
2024/01/19 08:21:42;;;;;;;6.78;1.83;;;;;;;-1.66;100.00;101623.47;4978194;28;20034;-73
2024/01/19 08:24:28;;;;;;;2.58;1.50;;;;;;;-1.64;100.00;101624.34;4980155;28;20116;-72
2024/01/19 08:27:14;;;;;;;4.93;1.55;;;;;;;-1.66;100.00;101634.75;4992629;28;20065;-72
2024/01/19 08:30:00;;;;;;;6.95;1.40;;;;;;;-1.67;100.00;101626.91;5016498;28;20076;-73
2024/01/19 08:32:46;;;;;;;6.05;1.08;;;;;;;-1.70;100.00;101629.47;5016035;28;20041;-72
2024/01/19 08:35:31;;;;;;;5.32;1.23;;;;;;;-1.71;100.00;101633.78;5003700;28;20037;-72
2024/01/19 08:38:17;;;;;;;4.18;1.80;;;;;;;-1.72;100.00;101633.75;5018176;28;20045;-72
2024/01/19 08:41:03;;;;;;;3.03;1.73;;;;;;;-1.70;100.00;101635.53;5018989;28;20454;-72
2024/01/19 08:43:49;;;;;;;7.70;1.45;;;;;;;-1.67;100.00;101643.38;5016821;28;20124;-72
2024/01/19 08:46:34;;;;;;;2.78;1.40;;;;;;;-1.64;100.00;101640.84;5011069;28;20510;-72
2024/01/19 08:49:22;;;;;;;4.13;1.40;;;;;;;-1.59;100.00;101640.06;5012359;28;20170;-72
2024/01/19 08:52:08;;;;;;;5.50;1.30;;;;;;;-1.59;100.00;101651.28;5005435;28;20041;-72
2024/01/19 08:54:54;;;;;;;6.78;1.38;;;;;;;-1.56;100.00;101646.16;5019200;28;20511;-73
2024/01/19 08:57:40;;;;;;;3.42;1.10;;;;;;;-1.49;100.00;101651.47;5016291;28;20029;-72
2024/01/19 09:00:25;;;;;;;4.10;1.20;;;;;;;-1.43;100.00;101656.75;5009345;28;20120;-72
2024/01/19 09:03:11;;;;;;;5.95;1.60;;;;;;;-1.39;100.00;101658.56;5017757;28;20038;-72
2024/01/19 09:05:57;;;;;;;6.05;1.40;;;;;;;-1.36;100.00;101663.84;5019342;28;20041;-72
2024/01/19 09:08:43;;;;;;;6.03;1.65;;;;;;;-1.31;100.00;101669.97;5016375;28;20764;-71
2024/01/19 09:11:33;;;;;;;4.25;1.20;;;;;;;-1.26;100.00;101672.63;5016820;28;20029;-72
2024/01/19 09:14:20;;;;;;;9.63;1.58;;;;;;;-1.23;100.00;101680.50;5017775;28;20484;-72
2024/01/19 09:17:06;;;;;;;5.78;1.20;;;;;;;-1.19;100.00;101682.31;5018341;28;20033;-72
2024/01/19 09:19:51;;;;;;;8.73;1.60;;;;;;;-1.15;100.00;101691.03;5018173;28;20041;-72
2024/01/19 09:22:37;;;;;;;4.93;1.60;;;;;;;-1.12;100.00;101691.06;5021126;28;20664;-72
2024/01/19 09:25:23;;;;;;;5.32;1.50;;;;;;;-1.09;100.00;101693.75;5019954;28;20563;-71
2024/01/19 09:28:09;;;;;;;4.53;1.17;;;;;;;-1.07;100.00;101694.63;5019772;28;20057;-72
2024/01/19 09:30:54;;;;;;;5.43;1.35;;;;;;;-1.02;100.00;101702.50;5019410;28;22144;-71
2024/01/19 09:33:40;;;;;;;9.98;1.42;;;;;;;-0.96;100.00;101710.41;5004972;28;20057;-70
2024/01/19 09:36:26;;;;;;;4.35;1.05;;;;;;;-0.92;100.00;101712.22;5031328;28;20049;-70
2024/01/19 09:39:12;;;;;;;5.82;2.35;;;;;;;-0.88;100.00;101708.78;5010580;28;20049;-71
2024/01/19 09:42:08;;;;;;;4.05;1.30;;;;;;;-0.87;100.00;101705.34;5018853;28;20041;-71
2024/01/19 09:45:17;;;;;;;2.70;0.93;;;;;;;-0.82;100.00;101716.69;5015482;28;20053;-71
2024/01/19 09:48:17;;;;;;;3.03;1.10;;;;;;;-0.75;100.00;101725.50;5016736;28;20038;-72
2024/01/19 09:51:07;;;;;;;2.58;1.42;;;;;;;-0.69;100.00;101720.34;5016985;28;20120;-72
2024/01/19 09:53:56;;;;;;;5.05;0.98;;;;;;;-0.65;100.00;101731.69;5016812;28;20038;-71
2024/01/19 09:56:42;;;;;;;2.80;1.15;;;;;;;-0.59;100.00;101731.78;5003033;28;20037;-69
2024/01/19 09:59:30;;;;;;;4.93;1.52;;;;;;;-0.50;100.00;101743.19;5019395;28;20033;-72
2024/01/19 10:02:17;;;;;;;5.43;1.10;;;;;;;-0.40;100.00;101746.81;5017714;28;20064;-72
2024/01/19 10:05:06;;;;;;;7.38;1.60;;;;;;;-0.36;100.00;101743.38;5017046;28;21478;-71
2024/01/19 10:07:57;;;;;;;4.70;1.30;;;;;;;-0.30;100.00;101738.28;5017864;28;20094;-72
2024/01/19 10:10:43;;;;;;;5.30;1.30;;;;;;;-0.27;100.00;101743.53;5015942;28;20525;-72
2024/01/19 10:13:29;;;;;;;7.90;1.48;;;;;;;-0.18;100.00;101751.47;5019099;28;20033;-71
2024/01/19 10:16:15;;;;;;;7.07;1.27;;;;;;;-0.11;100.00;101756.75;5019120;28;20115;-72
2024/01/19 10:19:02;;;;;;;6.93;1.95;;;;;;;-0.05;100.00;101757.69;5020058;28;20057;-71
2024/01/19 10:21:51;;;;;;;9.88;1.67;;;;;;;-0.03;100.00;101762.94;5020998;28;20037;-71
2024/01/19 10:24:39;;;;;;;8.70;1.92;;;;;;;0.02;100.00;101766.47;5017645;28;20052;-71
2024/01/19 10:27:44;;;;;;;7.05;1.77;;;;;;;0.07;100.00;101769.13;5016035;28;20350;-71
2024/01/19 10:30:30;;;;;;;6.07;1.77;;;;;;;0.11;100.00;101779.59;5018648;28;20049;-71
2024/01/19 10:33:17;;;;;;;6.28;1.63;;;;;;;0.14;100.00;101781.38;5029400;28;20033;-72
2024/01/19 10:36:03;;;;;;;5.47;1.75;;;;;;;0.17;100.00;101784.03;5016128;28;20037;-71
2024/01/19 10:38:49;;;;;;;5.32;2.28;;;;;;;0.20;100.00;101776.25;5018263;28;20029;-70
2024/01/19 10:41:34;;;;;;;4.05;1.38;;;;;;;0.23;100.00;101770.22;5013780;28;20037;-72
2024/01/19 10:44:21;;;;;;;2.05;1.20;;;;;;;0.29;100.00;101785.91;5014343;28;20048;-71
2024/01/19 10:47:07;;;;;;;3.10;1.02;;;;;;;0.39;100.00;101779.94;5015578;28;20408;-71
2024/01/19 10:50:05;;;;;;;3.17;1.00;;;;;;;0.50;100.00;101790.50;5014076;28;20045;-72
2024/01/19 10:52:52;;;;;;;6.93;1.25;;;;;;;0.58;100.00;101793.22;5013738;28;21427;-70
2024/01/19 10:55:46;;;;;;;7.05;1.15;;;;;;;0.67;100.00;101797.66;5025332;28;20132;-71
2024/01/19 10:58:35;;;;;;;4.00;1.17;;;;;;;0.74;100.00;101798.56;5027714;28;20034;-71
2024/01/19 11:01:20;;;;;;;3.63;1.13;;;;;;;0.81;100.00;101800.38;5022987;28;20033;-70
2024/01/19 11:04:08;;;;;;;7.65;1.30;;;;;;;0.89;100.00;101803.09;5015401;28;20560;-71
2024/01/19 11:06:54;;;;;;;8.07;1.70;;;;;;;0.94;100.00;101801.41;5013806;28;20045;-72
2024/01/19 11:09:40;;;;;;;6.80;1.95;;;;;;;0.98;100.00;101815.34;5016016;28;20140;-72
2024/01/19 11:12:26;;;;;;;3.83;1.25;;;;;;;1.03;100.00;101811.06;5014505;28;20456;-70
2024/01/19 11:15:13;;;;;;;6.57;1.75;;;;;;;1.06;100.00;101824.13;5000006;28;20052;-70
2024/01/19 11:18:00;;;;;;;7.22;1.35;;;;;;;1.10;100.00;101827.63;5014500;28;20052;-71
2024/01/19 11:20:47;;;;;;;6.25;1.08;;;;;;;1.16;100.00;101822.47;5013426;28;20033;-71
2024/01/19 11:23:34;;;;;;;2.70;1.02;;;;;;;1.25;100.00;101824.31;5017623;28;20040;-71
2024/01/19 11:26:29;;;;;;;5.13;1.20;;;;;;;1.30;100.00;101820.00;4999600;28;20108;-72
2024/01/19 11:29:28;;;;;;;5.65;1.00;;;;;;;1.33;100.00;101814.81;5014898;28;20084;-72
2024/01/19 11:32:14;;;;;;;7.05;1.20;;;;;;;1.33;100.00;101817.41;5011478;28;20518;-69
2024/01/19 11:35:00;;;;;;;5.07;1.33;;;;;;;1.36;100.00;101820.03;5016106;28;20041;-70
2024/01/19 11:37:46;;;;;;;4.88;1.20;;;;;;;1.37;100.00;101819.19;5015561;28;20033;-72
2024/01/19 11:40:34;;;;;;;6.15;1.33;;;;;;;1.40;100.00;101824.44;5000946;28;20064;-71
2024/01/19 11:43:37;;;;;;;4.65;1.50;;;;;;;1.43;100.00;101821.88;5019380;28;20124;-71
2024/01/19 11:46:46;;;;;;;7.03;1.55;;;;;;;1.47;100.00;101818.41;5012267;28;20400;-71
2024/01/19 11:49:33;;;;;;;5.13;1.33;;;;;;;1.55;100.00;101825.41;5035176;28;20033;-71
2024/01/19 11:52:18;;;;;;;6.57;1.40;;;;;;;1.55;100.00;101812.38;5019847;28;20029;-71
2024/01/19 11:55:26;;;;;;;6.10;1.20;;;;;;;1.57;100.00;101816.75;5017612;28;20033;-72
2024/01/19 11:58:26;;;;;;;9.75;1.20;;;;;;;1.59;100.00;101815.00;5019710;28;20034;-70
2024/01/19 12:01:12;;;;;;;6.75;1.38;;;;;;;1.66;100.00;101809.84;5015352;28;20030;-71
2024/01/19 12:03:59;;;;;;;4.97;1.30;;;;;;;1.69;100.00;101812.47;5020064;28;20053;-71
2024/01/19 12:06:44;;;;;;;3.95;0.95;;;;;;;1.72;100.00;101804.66;5021050;28;20038;-71
2024/01/19 12:09:30;;;;;;;2.20;0.90;;;;;;;1.74;100.00;101810.78;5021465;28;20412;-71
2024/01/19 12:12:16;;;;;;;4.30;0.88;;;;;;;1.75;100.00;101805.56;5018799;28;20033;-71
2024/01/19 12:15:07;;;;;;;1.50;1.02;;;;;;;1.78;100.00;101799.47;5020260;28;20384;-72
2024/01/19 12:17:53;;;;;;;1.48;0.80;;;;;;;1.81;100.00;101801.25;5010223;28;20053;-71
2024/01/19 12:20:41;;;;;;;2.65;1.10;;;;;;;1.82;100.00;101789.94;5022193;28;22038;-72
2024/01/19 12:23:28;;;;;;;1.77;0.85;;;;;;;1.85;100.00;101795.19;5016382;28;20045;-72
2024/01/19 12:26:20;;;;;;;2.72;1.42;;;;;;;1.88;100.00;101784.75;5022982;28;20048;-71
2024/01/19 12:29:06;;;;;;;5.10;1.17;;;;;;;1.89;100.00;101789.09;5021758;28;20081;-71
2024/01/19 12:32:10;;;;;;;3.67;1.02;;;;;;;1.89;100.00;101784.75;5018630;28;20037;-71
2024/01/19 12:34:57;;;;;;;4.60;0.98;;;;;;;1.88;100.00;101788.25;5014879;28;20042;-72
2024/01/19 12:37:43;;;;;;;3.92;1.10;;;;;;;1.91;100.00;101790.00;5019303;28;20033;-70
2024/01/19 12:40:28;;;;;;;3.10;1.00;;;;;;;1.91;100.00;101797.84;5021291;28;20037;-71
2024/01/19 12:43:14;;;;;;;0.90;0.80;;;;;;;1.90;100.00;101799.56;5020081;28;20076;-71
2024/01/19 12:46:05;;;;;;;3.85;0.98;;;;;;;1.96;100.00;101785.66;5016351;28;21953;-71
2024/01/19 12:48:58;;;;;;;2.97;0.88;;;;;;;1.97;100.00;101786.53;5017982;28;20045;-71